sensor_id;sensor_type;location;lat;lon;timestamp;temperature;humidity
17341;DHT22;8788;49.930;8.660;2023-04-19T00:02:12;12.80;99.90
17341;DHT22;8788;49.930;8.660;2023-04-19T00:04:39;12.70;99.90
17341;DHT22;8788;49.930;8.660;2023-04-19T00:07:07;12.70;99.90
17341;DHT22;8788;49.930;8.660;2023-04-19T00:09:34;12.70;99.90
17341;DHT22;8788;49.930;8.660;2023-04-19T00:12:01;12.70;99.90
17341;DHT22;8788;49.930;8.660;2023-04-19T00:14:29;12.70;99.90
17341;DHT22;8788;49.930;8.660;2023-04-19T00:16:56;12.80;99.90
17341;DHT22;8788;49.930;8.660;2023-04-19T00:19:23;12.70;99.90
17341;DHT22;8788;49.930;8.660;2023-04-19T00:21:50;12.70;99.90
17341;DHT22;8788;49.930;8.660;2023-04-19T00:24:19;12.60;99.90
17341;DHT22;8788;49.930;8.660;2023-04-19T00:26:46;12.60;99.90
17341;DHT22;8788;49.930;8.660;2023-04-19T00:29:13;12.60;99.90
17341;DHT22;8788;49.930;8.660;2023-04-19T00:31:40;12.60;99.90
17341;DHT22;8788;49.930;8.660;2023-04-19T00:34:07;12.60;99.90
17341;DHT22;8788;49.930;8.660;2023-04-19T00:36:34;12.50;99.90
17341;DHT22;8788;49.930;8.660;2023-04-19T00:39:02;12.50;99.90
17341;DHT22;8788;49.930;8.660;2023-04-19T00:41:30;12.50;99.90
17341;DHT22;8788;49.930;8.660;2023-04-19T00:43:57;12.50;99.90
17341;DHT22;8788;49.930;8.660;2023-04-19T00:46:25;12.50;99.90
17341;DHT22;8788;49.930;8.660;2023-04-19T00:48:53;12.60;99.90
17341;DHT22;8788;49.930;8.660;2023-04-19T00:51:20;12.60;99.90
17341;DHT22;8788;49.930;8.660;2023-04-19T00:53:47;12.50;99.90
17341;DHT22;8788;49.930;8.660;2023-04-19T00:56:18;12.50;99.90
17341;DHT22;8788;49.930;8.660;2023-04-19T00:58:49;12.50;99.90
17341;DHT22;8788;49.930;8.660;2023-04-19T01:01:16;12.50;99.90
17341;DHT22;8788;49.930;8.660;2023-04-19T01:03:45;12.50;99.90
17341;DHT22;8788;49.930;8.660;2023-04-19T01:06:13;12.50;99.90
17341;DHT22;8788;49.930;8.660;2023-04-19T01:08:41;12.50;99.90
17341;DHT22;8788;49.930;8.660;2023-04-19T01:11:08;12.50;99.90
17341;DHT22;8788;49.930;8.660;2023-04-19T01:13:36;12.40;99.90
17341;DHT22;8788;49.930;8.660;2023-04-19T01:16:05;12.40;99.90
17341;DHT22;8788;49.930;8.660;2023-04-19T01:18:32;12.40;99.90
17341;DHT22;8788;49.930;8.660;2023-04-19T01:21:03;12.40;99.90
17341;DHT22;8788;49.930;8.660;2023-04-19T01:23:33;12.40;99.90
17341;DHT22;8788;49.930;8.660;2023-04-19T01:26:00;12.40;99.90
17341;DHT22;8788;49.930;8.660;2023-04-19T01:28:28;12.40;99.90
17341;DHT22;8788;49.930;8.660;2023-04-19T01:30:55;12.40;99.90
17341;DHT22;8788;49.930;8.660;2023-04-19T01:33:22;12.40;99.90
17341;DHT22;8788;49.930;8.660;2023-04-19T01:35:49;12.30;99.90
17341;DHT22;8788;49.930;8.660;2023-04-19T01:38:16;12.30;99.90
17341;DHT22;8788;49.930;8.660;2023-04-19T01:40:45;12.30;99.90
17341;DHT22;8788;49.930;8.660;2023-04-19T01:43:13;12.30;99.90
17341;DHT22;8788;49.930;8.660;2023-04-19T01:45:40;12.40;99.90
17341;DHT22;8788;49.930;8.660;2023-04-19T01:48:07;12.40;99.90
17341;DHT22;8788;49.930;8.660;2023-04-19T01:50:34;12.40;99.90
17341;DHT22;8788;49.930;8.660;2023-04-19T01:53:03;12.50;99.90
17341;DHT22;8788;49.930;8.660;2023-04-19T01:55:31;12.50;99.90
17341;DHT22;8788;49.930;8.660;2023-04-19T01:58:00;12.50;99.90
17341;DHT22;8788;49.930;8.660;2023-04-19T02:00:27;12.60;99.90
17341;DHT22;8788;49.930;8.660;2023-04-19T02:02:55;12.50;99.90
17341;DHT22;8788;49.930;8.660;2023-04-19T02:05:22;12.50;99.90
17341;DHT22;8788;49.930;8.660;2023-04-19T02:07:49;12.50;99.90
17341;DHT22;8788;49.930;8.660;2023-04-19T02:10:16;12.50;99.90
17341;DHT22;8788;49.930;8.660;2023-04-19T02:12:44;12.50;99.90
17341;DHT22;8788;49.930;8.660;2023-04-19T02:15:12;12.50;99.90
17341;DHT22;8788;49.930;8.660;2023-04-19T02:17:39;12.50;99.90
17341;DHT22;8788;49.930;8.660;2023-04-19T02:20:07;12.50;99.90
17341;DHT22;8788;49.930;8.660;2023-04-19T02:22:35;12.50;99.90
17341;DHT22;8788;49.930;8.660;2023-04-19T02:25:02;12.50;99.90
17341;DHT22;8788;49.930;8.660;2023-04-19T02:27:30;12.50;99.90
17341;DHT22;8788;49.930;8.660;2023-04-19T02:29:57;12.50;99.90
17341;DHT22;8788;49.930;8.660;2023-04-19T02:32:25;12.50;99.90
17341;DHT22;8788;49.930;8.660;2023-04-19T02:34:52;12.40;99.90
17341;DHT22;8788;49.930;8.660;2023-04-19T02:37:19;12.50;99.90
17341;DHT22;8788;49.930;8.660;2023-04-19T02:39:47;12.40;99.90
17341;DHT22;8788;49.930;8.660;2023-04-19T02:42:14;12.40;99.90
17341;DHT22;8788;49.930;8.660;2023-04-19T02:44:42;12.30;99.90
17341;DHT22;8788;49.930;8.660;2023-04-19T02:47:09;12.30;99.90
17341;DHT22;8788;49.930;8.660;2023-04-19T02:49:37;12.30;99.90
17341;DHT22;8788;49.930;8.660;2023-04-19T02:52:07;12.30;99.90
17341;DHT22;8788;49.930;8.660;2023-04-19T02:54:37;12.20;99.90
17341;DHT22;8788;49.930;8.660;2023-04-19T02:57:04;12.20;99.90
17341;DHT22;8788;49.930;8.660;2023-04-19T02:59:31;12.20;99.90
17341;DHT22;8788;49.930;8.660;2023-04-19T03:02:00;12.20;99.90
17341;DHT22;8788;49.930;8.660;2023-04-19T03:04:28;12.20;99.90
17341;DHT22;8788;49.930;8.660;2023-04-19T03:06:57;12.20;99.90
17341;DHT22;8788;49.930;8.660;2023-04-19T03:09:24;12.10;99.90
17341;DHT22;8788;49.930;8.660;2023-04-19T03:11:52;12.10;99.90
17341;DHT22;8788;49.930;8.660;2023-04-19T03:14:19;12.10;99.90
17341;DHT22;8788;49.930;8.660;2023-04-19T03:16:46;12.10;99.90
17341;DHT22;8788;49.930;8.660;2023-04-19T03:19:14;12.10;99.90
17341;DHT22;8788;49.930;8.660;2023-04-19T03:21:46;12.10;99.90
17341;DHT22;8788;49.930;8.660;2023-04-19T03:24:17;12.10;99.90
17341;DHT22;8788;49.930;8.660;2023-04-19T03:26:49;12.00;99.90
17341;DHT22;8788;49.930;8.660;2023-04-19T03:29:21;12.00;99.90
17341;DHT22;8788;49.930;8.660;2023-04-19T03:31:59;12.10;99.90
17341;DHT22;8788;49.930;8.660;2023-04-19T03:34:27;12.10;99.90
17341;DHT22;8788;49.930;8.660;2023-04-19T03:36:54;12.00;99.90
17341;DHT22;8788;49.930;8.660;2023-04-19T03:39:22;12.00;99.90
17341;DHT22;8788;49.930;8.660;2023-04-19T03:41:54;11.90;99.90
17341;DHT22;8788;49.930;8.660;2023-04-19T03:44:53;11.90;99.90
17341;DHT22;8788;49.930;8.660;2023-04-19T03:47:22;11.90;99.90
17341;DHT22;8788;49.930;8.660;2023-04-19T03:49:52;11.90;99.90
17341;DHT22;8788;49.930;8.660;2023-04-19T03:52:20;11.90;99.90
17341;DHT22;8788;49.930;8.660;2023-04-19T03:54:48;11.90;99.90
17341;DHT22;8788;49.930;8.660;2023-04-19T03:57:37;11.90;99.90
17341;DHT22;8788;49.930;8.660;2023-04-19T04:00:27;11.90;99.90
17341;DHT22;8788;49.930;8.660;2023-04-19T04:02:58;11.90;99.90
17341;DHT22;8788;49.930;8.660;2023-04-19T04:05:26;11.90;99.90
17341;DHT22;8788;49.930;8.660;2023-04-19T04:07:53;11.90;99.90
17341;DHT22;8788;49.930;8.660;2023-04-19T04:10:23;11.90;99.90
17341;DHT22;8788;49.930;8.660;2023-04-19T04:12:50;11.90;99.90
17341;DHT22;8788;49.930;8.660;2023-04-19T04:15:24;11.90;99.90
17341;DHT22;8788;49.930;8.660;2023-04-19T04:17:52;11.80;99.90
17341;DHT22;8788;49.930;8.660;2023-04-19T04:20:20;11.80;99.90
17341;DHT22;8788;49.930;8.660;2023-04-19T04:22:49;11.70;99.90
17341;DHT22;8788;49.930;8.660;2023-04-19T04:25:19;11.70;99.90
17341;DHT22;8788;49.930;8.660;2023-04-19T04:27:49;11.70;99.90
17341;DHT22;8788;49.930;8.660;2023-04-19T04:30:18;11.70;99.90
17341;DHT22;8788;49.930;8.660;2023-04-19T04:32:45;11.60;99.90
17341;DHT22;8788;49.930;8.660;2023-04-19T04:35:16;11.60;99.90
17341;DHT22;8788;49.930;8.660;2023-04-19T04:37:51;11.60;99.90
17341;DHT22;8788;49.930;8.660;2023-04-19T04:40:20;11.60;99.90
17341;DHT22;8788;49.930;8.660;2023-04-19T04:42:48;11.60;99.90
17341;DHT22;8788;49.930;8.660;2023-04-19T04:45:18;11.60;99.90
17341;DHT22;8788;49.930;8.660;2023-04-19T04:47:45;11.60;99.90
17341;DHT22;8788;49.930;8.660;2023-04-19T04:50:14;11.70;99.90
17341;DHT22;8788;49.930;8.660;2023-04-19T04:52:41;11.70;99.90
17341;DHT22;8788;49.930;8.660;2023-04-19T04:55:16;11.60;99.90
17341;DHT22;8788;49.930;8.660;2023-04-19T04:57:44;11.60;99.90
17341;DHT22;8788;49.930;8.660;2023-04-19T05:00:18;11.60;99.90
17341;DHT22;8788;49.930;8.660;2023-04-19T05:03:12;11.60;99.90
17341;DHT22;8788;49.930;8.660;2023-04-19T05:05:45;11.60;99.90
17341;DHT22;8788;49.930;8.660;2023-04-19T05:08:12;11.50;99.90
17341;DHT22;8788;49.930;8.660;2023-04-19T05:10:40;11.60;99.90
17341;DHT22;8788;49.930;8.660;2023-04-19T05:13:08;11.60;99.90
17341;DHT22;8788;49.930;8.660;2023-04-19T05:15:36;11.70;99.90
17341;DHT22;8788;49.930;8.660;2023-04-19T05:18:04;11.70;99.90
17341;DHT22;8788;49.930;8.660;2023-04-19T05:20:32;11.70;99.90
17341;DHT22;8788;49.930;8.660;2023-04-19T05:23:06;11.80;99.90
17341;DHT22;8788;49.930;8.660;2023-04-19T05:25:35;11.80;99.90
17341;DHT22;8788;49.930;8.660;2023-04-19T05:28:03;11.70;99.90
17341;DHT22;8788;49.930;8.660;2023-04-19T05:30:41;11.70;99.90
17341;DHT22;8788;49.930;8.660;2023-04-19T05:33:09;11.80;99.90
17341;DHT22;8788;49.930;8.660;2023-04-19T05:35:37;11.80;99.90
17341;DHT22;8788;49.930;8.660;2023-04-19T05:38:04;11.90;99.90
17341;DHT22;8788;49.930;8.660;2023-04-19T05:40:31;11.90;99.90
17341;DHT22;8788;49.930;8.660;2023-04-19T05:42:58;12.00;99.90
17341;DHT22;8788;49.930;8.660;2023-04-19T05:45:25;12.00;99.90
17341;DHT22;8788;49.930;8.660;2023-04-19T05:47:54;12.10;99.90
17341;DHT22;8788;49.930;8.660;2023-04-19T05:50:40;12.10;99.90
17341;DHT22;8788;49.930;8.660;2023-04-19T05:53:43;12.10;99.90
17341;DHT22;8788;49.930;8.660;2023-04-19T05:56:10;12.20;99.90
17341;DHT22;8788;49.930;8.660;2023-04-19T05:58:38;12.20;99.90
17341;DHT22;8788;49.930;8.660;2023-04-19T06:01:05;12.20;99.90
17341;DHT22;8788;49.930;8.660;2023-04-19T06:03:34;12.20;99.90
17341;DHT22;8788;49.930;8.660;2023-04-19T06:06:01;12.30;99.90
17341;DHT22;8788;49.930;8.660;2023-04-19T06:08:28;12.30;99.90
17341;DHT22;8788;49.930;8.660;2023-04-19T06:10:55;12.30;99.90
17341;DHT22;8788;49.930;8.660;2023-04-19T06:13:23;12.40;99.90
17341;DHT22;8788;49.930;8.660;2023-04-19T06:15:51;12.40;99.90
17341;DHT22;8788;49.930;8.660;2023-04-19T06:18:18;12.40;99.90
17341;DHT22;8788;49.930;8.660;2023-04-19T06:20:46;12.30;99.90
17341;DHT22;8788;49.930;8.660;2023-04-19T06:23:14;12.40;99.90
17341;DHT22;8788;49.930;8.660;2023-04-19T06:25:43;12.40;99.90
17341;DHT22;8788;49.930;8.660;2023-04-19T06:28:10;12.40;99.90
17341;DHT22;8788;49.930;8.660;2023-04-19T06:30:37;12.50;99.90
17341;DHT22;8788;49.930;8.660;2023-04-19T06:33:04;12.50;99.90
17341;DHT22;8788;49.930;8.660;2023-04-19T06:35:31;12.70;99.90
17341;DHT22;8788;49.930;8.660;2023-04-19T06:38:00;12.70;99.90
17341;DHT22;8788;49.930;8.660;2023-04-19T06:40:27;12.80;99.90
17341;DHT22;8788;49.930;8.660;2023-04-19T06:42:54;12.80;99.90
17341;DHT22;8788;49.930;8.660;2023-04-19T06:45:22;12.90;99.90
17341;DHT22;8788;49.930;8.660;2023-04-19T06:47:49;12.90;99.90
17341;DHT22;8788;49.930;8.660;2023-04-19T06:50:16;12.90;99.90
17341;DHT22;8788;49.930;8.660;2023-04-19T06:52:43;12.90;99.90
17341;DHT22;8788;49.930;8.660;2023-04-19T06:55:11;12.80;99.90
17341;DHT22;8788;49.930;8.660;2023-04-19T06:57:38;12.80;99.90
17341;DHT22;8788;49.930;8.660;2023-04-19T07:00:08;12.80;99.90
17341;DHT22;8788;49.930;8.660;2023-04-19T07:02:36;12.80;99.90
17341;DHT22;8788;49.930;8.660;2023-04-19T07:05:03;12.80;99.90
17341;DHT22;8788;49.930;8.660;2023-04-19T07:07:30;12.80;99.90
17341;DHT22;8788;49.930;8.660;2023-04-19T07:09:57;12.80;99.90
17341;DHT22;8788;49.930;8.660;2023-04-19T07:12:26;12.80;99.90
17341;DHT22;8788;49.930;8.660;2023-04-19T07:14:53;12.70;99.90
17341;DHT22;8788;49.930;8.660;2023-04-19T07:17:22;12.80;99.90
17341;DHT22;8788;49.930;8.660;2023-04-19T07:19:49;12.90;99.90
17341;DHT22;8788;49.930;8.660;2023-04-19T07:22:16;13.00;99.90
17341;DHT22;8788;49.930;8.660;2023-04-19T07:24:43;13.00;99.90
17341;DHT22;8788;49.930;8.660;2023-04-19T07:27:10;13.00;99.90
17341;DHT22;8788;49.930;8.660;2023-04-19T07:29:40;13.00;99.90
17341;DHT22;8788;49.930;8.660;2023-04-19T07:32:07;13.10;99.90
17341;DHT22;8788;49.930;8.660;2023-04-19T07:34:36;13.10;99.90
17341;DHT22;8788;49.930;8.660;2023-04-19T07:37:03;13.10;99.90
17341;DHT22;8788;49.930;8.660;2023-04-19T07:39:30;13.10;99.90
17341;DHT22;8788;49.930;8.660;2023-04-19T07:41:57;13.20;99.90
17341;DHT22;8788;49.930;8.660;2023-04-19T07:44:26;13.20;99.90
17341;DHT22;8788;49.930;8.660;2023-04-19T07:46:54;13.20;99.90
17341;DHT22;8788;49.930;8.660;2023-04-19T07:49:21;13.10;99.90
17341;DHT22;8788;49.930;8.660;2023-04-19T07:51:48;13.10;99.90
17341;DHT22;8788;49.930;8.660;2023-04-19T07:54:16;13.10;99.90
17341;DHT22;8788;49.930;8.660;2023-04-19T07:56:44;13.20;99.90
17341;DHT22;8788;49.930;8.660;2023-04-19T07:59:11;13.20;99.90
17341;DHT22;8788;49.930;8.660;2023-04-19T08:01:38;13.30;99.90
17341;DHT22;8788;49.930;8.660;2023-04-19T08:04:07;13.40;99.90
17341;DHT22;8788;49.930;8.660;2023-04-19T08:06:36;13.50;99.90
17341;DHT22;8788;49.930;8.660;2023-04-19T08:09:04;13.50;99.90
17341;DHT22;8788;49.930;8.660;2023-04-19T08:11:31;13.50;99.90
17341;DHT22;8788;49.930;8.660;2023-04-19T08:13:58;13.40;99.90
17341;DHT22;8788;49.930;8.660;2023-04-19T08:16:25;13.40;99.90
17341;DHT22;8788;49.930;8.660;2023-04-19T08:18:54;13.50;99.90
17341;DHT22;8788;49.930;8.660;2023-04-19T08:21:22;13.60;99.90
17341;DHT22;8788;49.930;8.660;2023-04-19T08:23:49;13.60;99.90
17341;DHT22;8788;49.930;8.660;2023-04-19T08:26:17;13.70;99.90
17341;DHT22;8788;49.930;8.660;2023-04-19T08:28:44;13.90;99.90
17341;DHT22;8788;49.930;8.660;2023-04-19T08:31:11;13.90;99.90
17341;DHT22;8788;49.930;8.660;2023-04-19T08:33:38;13.90;99.90
17341;DHT22;8788;49.930;8.660;2023-04-19T08:36:06;13.90;99.90
17341;DHT22;8788;49.930;8.660;2023-04-19T08:38:34;13.90;99.90
17341;DHT22;8788;49.930;8.660;2023-04-19T08:41:03;14.00;99.90
17341;DHT22;8788;49.930;8.660;2023-04-19T08:43:34;14.10;99.90
17341;DHT22;8788;49.930;8.660;2023-04-19T08:46:03;14.10;99.90
17341;DHT22;8788;49.930;8.660;2023-04-19T08:48:33;14.20;99.90
17341;DHT22;8788;49.930;8.660;2023-04-19T08:51:01;14.20;99.90
17341;DHT22;8788;49.930;8.660;2023-04-19T08:53:29;14.10;99.90
17341;DHT22;8788;49.930;8.660;2023-04-19T08:55:57;14.10;99.90
17341;DHT22;8788;49.930;8.660;2023-04-19T08:58:25;14.10;99.90
17341;DHT22;8788;49.930;8.660;2023-04-19T09:00:56;14.10;99.90
17341;DHT22;8788;49.930;8.660;2023-04-19T09:03:24;14.10;99.90
17341;DHT22;8788;49.930;8.660;2023-04-19T09:05:51;14.10;99.90
17341;DHT22;8788;49.930;8.660;2023-04-19T09:08:23;14.30;99.90
17341;DHT22;8788;49.930;8.660;2023-04-19T09:10:57;14.50;99.90
17341;DHT22;8788;49.930;8.660;2023-04-19T09:13:25;14.60;99.90
17341;DHT22;8788;49.930;8.660;2023-04-19T09:15:52;14.70;99.90
17341;DHT22;8788;49.930;8.660;2023-04-19T09:18:22;14.90;99.90
17341;DHT22;8788;49.930;8.660;2023-04-19T09:20:50;15.00;99.90
17341;DHT22;8788;49.930;8.660;2023-04-19T09:23:22;15.10;99.90
17341;DHT22;8788;49.930;8.660;2023-04-19T09:25:52;15.30;99.90
17341;DHT22;8788;49.930;8.660;2023-04-19T09:28:21;15.60;99.90
17341;DHT22;8788;49.930;8.660;2023-04-19T09:30:48;15.90;99.90
17341;DHT22;8788;49.930;8.660;2023-04-19T09:33:30;16.00;99.90
17341;DHT22;8788;49.930;8.660;2023-04-19T09:35:58;16.20;99.90
17341;DHT22;8788;49.930;8.660;2023-04-19T09:38:25;16.20;99.90
17341;DHT22;8788;49.930;8.660;2023-04-19T09:41:04;16.10;99.90
17341;DHT22;8788;49.930;8.660;2023-04-19T09:43:33;16.00;99.90
17341;DHT22;8788;49.930;8.660;2023-04-19T09:46:00;16.00;99.90
17341;DHT22;8788;49.930;8.660;2023-04-19T09:48:28;16.00;99.90
17341;DHT22;8788;49.930;8.660;2023-04-19T09:50:57;16.00;99.90
17341;DHT22;8788;49.930;8.660;2023-04-19T09:53:25;16.10;99.90
17341;DHT22;8788;49.930;8.660;2023-04-19T09:55:53;16.10;99.90
17341;DHT22;8788;49.930;8.660;2023-04-19T09:58:21;16.30;99.90
17341;DHT22;8788;49.930;8.660;2023-04-19T10:00:49;16.40;99.90
17341;DHT22;8788;49.930;8.660;2023-04-19T10:03:17;16.50;99.90
17341;DHT22;8788;49.930;8.660;2023-04-19T10:05:46;16.60;99.90
17341;DHT22;8788;49.930;8.660;2023-04-19T10:08:14;16.50;99.90
17341;DHT22;8788;49.930;8.660;2023-04-19T10:10:44;16.40;99.90
17341;DHT22;8788;49.930;8.660;2023-04-19T10:13:16;16.30;99.90
17341;DHT22;8788;49.930;8.660;2023-04-19T10:15:48;16.30;99.90
17341;DHT22;8788;49.930;8.660;2023-04-19T10:18:16;16.40;99.90
17341;DHT22;8788;49.930;8.660;2023-04-19T10:20:48;16.50;99.90
17341;DHT22;8788;49.930;8.660;2023-04-19T10:23:18;16.50;99.90
17341;DHT22;8788;49.930;8.660;2023-04-19T10:25:46;16.40;99.90
17341;DHT22;8788;49.930;8.660;2023-04-19T10:28:15;16.40;99.60
17341;DHT22;8788;49.930;8.660;2023-04-19T10:30:53;16.40;99.10
17341;DHT22;8788;49.930;8.660;2023-04-19T10:33:24;16.40;98.50
17341;DHT22;8788;49.930;8.660;2023-04-19T10:35:55;16.50;98.80
17341;DHT22;8788;49.930;8.660;2023-04-19T10:38:35;16.70;98.90
17341;DHT22;8788;49.930;8.660;2023-04-19T10:41:02;17.00;98.30
17341;DHT22;8788;49.930;8.660;2023-04-19T10:43:37;17.10;97.90
17341;DHT22;8788;49.930;8.660;2023-04-19T10:46:08;17.10;98.00
17341;DHT22;8788;49.930;8.660;2023-04-19T10:48:40;17.30;97.50
17341;DHT22;8788;49.930;8.660;2023-04-19T10:51:19;17.30;97.10
17341;DHT22;8788;49.930;8.660;2023-04-19T10:53:52;17.40;96.50
17341;DHT22;8788;49.930;8.660;2023-04-19T10:56:20;17.30;95.30
17341;DHT22;8788;49.930;8.660;2023-04-19T11:01:55;17.00;93.80
17341;DHT22;8788;49.930;8.660;2023-04-19T11:07:06;16.70;94.50
17341;DHT22;8788;49.930;8.660;2023-04-19T11:09:34;16.80;94.60
17341;DHT22;8788;49.930;8.660;2023-04-19T11:12:04;16.90;93.90
17341;DHT22;8788;49.930;8.660;2023-04-19T11:14:34;17.10;94.00
17341;DHT22;8788;49.930;8.660;2023-04-19T11:17:13;17.20;93.80
17341;DHT22;8788;49.930;8.660;2023-04-19T11:19:42;17.50;93.50
17341;DHT22;8788;49.930;8.660;2023-04-19T11:22:10;17.50;93.20
17341;DHT22;8788;49.930;8.660;2023-04-19T11:24:37;17.50;92.30
17341;DHT22;8788;49.930;8.660;2023-04-19T11:27:07;17.50;92.30
17341;DHT22;8788;49.930;8.660;2023-04-19T11:29:34;17.60;91.80
17341;DHT22;8788;49.930;8.660;2023-04-19T11:32:03;17.60;91.50
17341;DHT22;8788;49.930;8.660;2023-04-19T11:34:34;17.60;90.90
17341;DHT22;8788;49.930;8.660;2023-04-19T11:37:02;17.60;90.80
17341;DHT22;8788;49.930;8.660;2023-04-19T11:39:29;17.70;90.60
17341;DHT22;8788;49.930;8.660;2023-04-19T11:41:56;17.90;90.40
17341;DHT22;8788;49.930;8.660;2023-04-19T11:44:24;17.90;89.60
17341;DHT22;8788;49.930;8.660;2023-04-19T11:46:58;17.90;89.90
17341;DHT22;8788;49.930;8.660;2023-04-19T11:49:28;18.00;88.00
17341;DHT22;8788;49.930;8.660;2023-04-19T11:51:56;18.00;87.00
17341;DHT22;8788;49.930;8.660;2023-04-19T11:54:24;18.00;85.90
17341;DHT22;8788;49.930;8.660;2023-04-19T11:56:59;17.90;84.50
17341;DHT22;8788;49.930;8.660;2023-04-19T11:59:27;17.70;83.70
17341;DHT22;8788;49.930;8.660;2023-04-19T12:01:54;17.80;84.60
17341;DHT22;8788;49.930;8.660;2023-04-19T12:04:21;17.80;82.70
17341;DHT22;8788;49.930;8.660;2023-04-19T12:06:57;17.70;80.90
17341;DHT22;8788;49.930;8.660;2023-04-19T12:09:25;17.80;81.10
17341;DHT22;8788;49.930;8.660;2023-04-19T12:11:52;17.90;79.90
17341;DHT22;8788;49.930;8.660;2023-04-19T12:14:21;18.00;79.40
17341;DHT22;8788;49.930;8.660;2023-04-19T12:17:11;18.10;78.10
17341;DHT22;8788;49.930;8.660;2023-04-19T12:19:42;18.00;75.80
17341;DHT22;8788;49.930;8.660;2023-04-19T12:22:13;18.10;76.30
17341;DHT22;8788;49.930;8.660;2023-04-19T12:24:41;18.20;75.80
17341;DHT22;8788;49.930;8.660;2023-04-19T12:27:08;18.20;73.10
17341;DHT22;8788;49.930;8.660;2023-04-19T12:29:36;18.30;73.80
17341;DHT22;8788;49.930;8.660;2023-04-19T12:32:04;18.50;74.60
17341;DHT22;8788;49.930;8.660;2023-04-19T12:34:31;18.70;74.20
17341;DHT22;8788;49.930;8.660;2023-04-19T12:36:58;18.80;72.90
17341;DHT22;8788;49.930;8.660;2023-04-19T12:39:27;18.70;69.60
17341;DHT22;8788;49.930;8.660;2023-04-19T12:41:54;18.60;69.70
17341;DHT22;8788;49.930;8.660;2023-04-19T12:44:21;18.60;69.30
17341;DHT22;8788;49.930;8.660;2023-04-19T12:46:49;18.50;68.50
17341;DHT22;8788;49.930;8.660;2023-04-19T12:49:17;18.50;66.40
17341;DHT22;8788;49.930;8.660;2023-04-19T12:51:45;18.50;66.70
17341;DHT22;8788;49.930;8.660;2023-04-19T12:54:13;18.30;65.70
17341;DHT22;8788;49.930;8.660;2023-04-19T12:56:42;18.40;65.50
17341;DHT22;8788;49.930;8.660;2023-04-19T12:59:09;18.40;63.70
17341;DHT22;8788;49.930;8.660;2023-04-19T13:01:36;18.40;62.40
17341;DHT22;8788;49.930;8.660;2023-04-19T13:04:03;18.30;61.60
17341;DHT22;8788;49.930;8.660;2023-04-19T13:06:32;18.40;61.40
17341;DHT22;8788;49.930;8.660;2023-04-19T13:08:59;18.40;60.50
17341;DHT22;8788;49.930;8.660;2023-04-19T13:11:26;18.40;59.40
17341;DHT22;8788;49.930;8.660;2023-04-19T13:13:55;18.20;58.50
17341;DHT22;8788;49.930;8.660;2023-04-19T13:16:22;18.20;58.30
17341;DHT22;8788;49.930;8.660;2023-04-19T13:18:49;18.30;59.30
17341;DHT22;8788;49.930;8.660;2023-04-19T13:21:17;18.50;59.40
17341;DHT22;8788;49.930;8.660;2023-04-19T13:23:44;18.50;58.50
17341;DHT22;8788;49.930;8.660;2023-04-19T13:26:11;18.50;57.70
17341;DHT22;8788;49.930;8.660;2023-04-19T13:28:41;18.50;56.50
17341;DHT22;8788;49.930;8.660;2023-04-19T13:31:10;18.50;57.20
17341;DHT22;8788;49.930;8.660;2023-04-19T13:33:37;18.60;57.80
17341;DHT22;8788;49.930;8.660;2023-04-19T13:36:04;18.70;57.70
17341;DHT22;8788;49.930;8.660;2023-04-19T13:38:31;18.70;56.70
17341;DHT22;8788;49.930;8.660;2023-04-19T13:40:59;18.70;56.60
17341;DHT22;8788;49.930;8.660;2023-04-19T13:43:26;18.70;56.30
17341;DHT22;8788;49.930;8.660;2023-04-19T13:45:53;18.60;55.50
17341;DHT22;8788;49.930;8.660;2023-04-19T13:48:22;18.60;55.50
17341;DHT22;8788;49.930;8.660;2023-04-19T13:50:51;18.60;55.20
17341;DHT22;8788;49.930;8.660;2023-04-19T13:53:19;18.60;55.00
17341;DHT22;8788;49.930;8.660;2023-04-19T13:55:46;18.50;54.60
17341;DHT22;8788;49.930;8.660;2023-04-19T13:58:15;18.50;54.40
17341;DHT22;8788;49.930;8.660;2023-04-19T14:00:42;18.20;54.40
17341;DHT22;8788;49.930;8.660;2023-04-19T14:03:09;18.30;56.00
17341;DHT22;8788;49.930;8.660;2023-04-19T14:05:38;18.60;55.60
17341;DHT22;8788;49.930;8.660;2023-04-19T14:08:05;18.70;56.20
17341;DHT22;8788;49.930;8.660;2023-04-19T14:10:33;19.00;57.10
17341;DHT22;8788;49.930;8.660;2023-04-19T14:13:01;19.30;56.30
17341;DHT22;8788;49.930;8.660;2023-04-19T14:15:28;19.20;55.40
17341;DHT22;8788;49.930;8.660;2023-04-19T14:17:55;19.30;55.40
17341;DHT22;8788;49.930;8.660;2023-04-19T14:20:22;19.20;53.40
17341;DHT22;8788;49.930;8.660;2023-04-19T14:22:50;19.00;52.90
17341;DHT22;8788;49.930;8.660;2023-04-19T14:25:20;18.80;52.90
17341;DHT22;8788;49.930;8.660;2023-04-19T14:27:47;18.70;51.50
17341;DHT22;8788;49.930;8.660;2023-04-19T14:30:14;18.60;52.20
17341;DHT22;8788;49.930;8.660;2023-04-19T14:32:41;18.60;52.50
17341;DHT22;8788;49.930;8.660;2023-04-19T14:35:08;18.70;52.00
17341;DHT22;8788;49.930;8.660;2023-04-19T14:37:37;18.80;52.40
17341;DHT22;8788;49.930;8.660;2023-04-19T14:40:07;19.00;52.60
17341;DHT22;8788;49.930;8.660;2023-04-19T14:42:35;19.30;52.20
17341;DHT22;8788;49.930;8.660;2023-04-19T14:45:02;19.30;51.70
17341;DHT22;8788;49.930;8.660;2023-04-19T14:47:29;19.30;51.80
17341;DHT22;8788;49.930;8.660;2023-04-19T14:49:56;19.40;52.40
17341;DHT22;8788;49.930;8.660;2023-04-19T14:52:23;19.60;51.80
17341;DHT22;8788;49.930;8.660;2023-04-19T14:54:50;19.50;51.60
17341;DHT22;8788;49.930;8.660;2023-04-19T14:57:19;19.40;51.30
17341;DHT22;8788;49.930;8.660;2023-04-19T14:59:46;19.30;50.90
17341;DHT22;8788;49.930;8.660;2023-04-19T15:02:13;19.30;49.60
17341;DHT22;8788;49.930;8.660;2023-04-19T15:04:40;19.00;49.40
17341;DHT22;8788;49.930;8.660;2023-04-19T15:07:07;18.90;49.60
17341;DHT22;8788;49.930;8.660;2023-04-19T15:09:34;19.00;49.90
17341;DHT22;8788;49.930;8.660;2023-04-19T15:12:01;19.10;50.30
17341;DHT22;8788;49.930;8.660;2023-04-19T15:14:30;19.30;50.30
17341;DHT22;8788;49.930;8.660;2023-04-19T15:16:57;19.30;50.50
17341;DHT22;8788;49.930;8.660;2023-04-19T15:19:24;19.50;50.50
17341;DHT22;8788;49.930;8.660;2023-04-19T15:21:51;19.40;50.30
17341;DHT22;8788;49.930;8.660;2023-04-19T15:24:18;19.30;49.60
17341;DHT22;8788;49.930;8.660;2023-04-19T15:26:45;19.30;50.40
17341;DHT22;8788;49.930;8.660;2023-04-19T15:29:12;19.40;50.50
17341;DHT22;8788;49.930;8.660;2023-04-19T15:31:41;19.60;50.50
17341;DHT22;8788;49.930;8.660;2023-04-19T15:34:08;19.80;50.60
17341;DHT22;8788;49.930;8.660;2023-04-19T15:36:35;19.90;50.90
17341;DHT22;8788;49.930;8.660;2023-04-19T15:39:02;20.00;51.20
17341;DHT22;8788;49.930;8.660;2023-04-19T15:41:29;20.00;50.20
17341;DHT22;8788;49.930;8.660;2023-04-19T15:43:56;19.70;49.30
17341;DHT22;8788;49.930;8.660;2023-04-19T15:46:23;19.70;49.90
17341;DHT22;8788;49.930;8.660;2023-04-19T15:48:52;19.90;49.70
17341;DHT22;8788;49.930;8.660;2023-04-19T15:51:19;20.30;49.90
17341;DHT22;8788;49.930;8.660;2023-04-19T15:53:46;21.30;50.10
17341;DHT22;8788;49.930;8.660;2023-04-19T15:56:13;22.30;49.30
17341;DHT22;8788;49.930;8.660;2023-04-19T15:58:40;23.40;47.90
17341;DHT22;8788;49.930;8.660;2023-04-19T16:01:10;23.60;45.80